< < Back
Terminal Aerodrome Forecast


Current Version              Previous Versions:   1  2  3  4  5  6  7  8  9  

Terminal Aerodrome Forecast

104
FTUS42 KCHS 300500
TAFSAV
TAF
KSAV 300523Z 3006/3106 VRB03KT P6SM SCT090
     FM301800 10007KT P6SM SCT050
     FM310000 09004KT P6SM FEW040=



Latest METAR

987
SAUS80 KWBC 301100 RRA
MTRSAV
METAR KSAV 301053Z 00000KT 10SM FEW045 BKN095 22/17 A2996 RMK AO2 SLP146
CB DSNT E T02170172


USA.gov is the U.S. government's official web portal to all federal, state and local government web resources and services.